createdAt,value
2018-01-31T01:53:37.517Z,18.00
2018-01-31T01:56:05.027Z,17.47
2018-01-31T01:59:04.914Z,16.40
2018-01-31T02:01:32.648Z,16.93
2018-01-31T02:04:02.833Z,14.40
2018-01-31T02:06:32.643Z,16.90
2018-01-31T02:09:02.694Z,15.40
2018-01-31T02:11:32.443Z,16.27
2018-01-31T02:14:02.649Z,16.10
2018-01-31T02:16:32.464Z,16.30
2018-01-31T02:19:02.640Z,17.40
2018-01-31T02:21:32.832Z,16.47
2018-01-31T02:24:05.901Z,17.13
2018-01-31T02:26:33.408Z,15.63
2018-01-31T02:29:05.393Z,15.93
2018-01-31T02:31:32.987Z,16.30
2018-01-31T02:34:02.871Z,16.10
2018-01-31T02:36:31.916Z,16.37
2018-01-31T02:39:11.256Z,16.50
2018-01-31T02:41:38.769Z,15.90
2018-01-31T02:44:06.257Z,13.93
2018-01-31T02:46:33.752Z,15.10
2018-01-31T02:49:01.361Z,14.33
2018-01-31T02:51:31.016Z,13.17
2018-01-31T02:54:00.950Z,10.90
2018-01-31T02:56:29.968Z,9.70
2018-01-31T02:59:05.857Z,8.93
2018-01-31T03:01:33.604Z,6.90
2018-01-31T03:04:01.641Z,6.97
2018-01-31T03:06:39.624Z,6.00
2018-01-31T03:09:07.120Z,5.37
2018-01-31T03:11:34.709Z,5.90
2018-01-31T03:16:59.157Z,4.57
2018-01-31T03:19:30.512Z,4.40
2018-01-31T03:22:00.005Z,3.77
2018-01-31T03:24:29.875Z,4.03
2018-01-31T03:27:01.261Z,4.47
2018-01-31T03:29:30.876Z,4.47
2018-01-31T03:32:00.515Z,3.67
2018-01-31T03:34:30.002Z,3.90
2018-01-31T03:37:00.484Z,4.50
2018-01-31T03:39:31.577Z,4.20
2018-01-31T03:42:01.667Z,4.40
2018-01-31T03:44:31.056Z,4.30
2018-01-31T03:47:00.632Z,5.10
2018-01-31T03:49:31.465Z,4.37
2018-01-31T03:52:02.507Z,5.13
2018-01-31T03:54:31.878Z,4.60
2018-01-31T03:57:10.675Z,4.20
2018-01-31T03:59:38.179Z,3.93
2018-01-31T04:02:05.660Z,3.67
2018-01-31T04:04:41.052Z,3.77
2018-01-31T04:07:08.535Z,3.20
2018-01-31T04:09:36.008Z,3.90
2018-01-31T04:12:03.505Z,3.43
2018-01-31T04:14:38.640Z,2.97
2018-01-31T04:17:06.131Z,3.10
2018-01-31T04:19:33.607Z,3.30
2018-01-31T04:22:02.016Z,2.67
2018-01-31T04:24:31.921Z,2.27
2018-01-31T04:27:02.788Z,2.13
2018-01-31T04:29:34.325Z,2.50
2018-01-31T04:32:03.285Z,2.40
2018-01-31T04:34:32.657Z,2.60
2018-01-31T04:37:03.047Z,2.90
2018-01-31T04:39:33.079Z,2.40
2018-01-31T04:42:02.702Z,2.23
2018-01-31T04:44:38.205Z,2.53
2018-01-31T04:47:05.709Z,2.07
2018-01-31T04:49:33.420Z,1.97
2018-01-31T04:52:02.236Z,2.40
2018-01-31T04:54:32.880Z,2.40
2018-01-31T04:57:02.131Z,1.80
2018-01-31T04:59:38.893Z,2.27
2018-01-31T05:02:06.384Z,1.80
2018-01-31T05:04:33.865Z,1.53
2018-01-31T05:07:03.489Z,1.90
2018-01-31T05:09:37.953Z,1.67
2018-01-31T05:12:05.459Z,1.40
2018-01-31T05:14:33.646Z,1.10
2018-01-31T05:17:05.375Z,1.30
2018-01-31T05:19:33.508Z,1.10
2018-01-31T05:22:03.016Z,1.10
2018-01-31T05:24:32.893Z,1.07
2018-01-31T05:27:02.012Z,1.20
2018-01-31T05:29:32.692Z,1.10
2018-01-31T05:32:02.377Z,1.00
2018-01-31T05:34:31.827Z,0.80
2018-01-31T05:37:02.030Z,1.00
2018-01-31T05:39:32.883Z,1.10
2018-01-31T05:42:02.620Z,1.57
2018-01-31T05:44:32.023Z,1.00
2018-01-31T05:47:09.618Z,1.57
2018-01-31T05:49:50.295Z,0.87
2018-01-31T05:52:31.724Z,0.80
2018-01-31T05:55:02.627Z,1.20
2018-01-31T05:57:32.565Z,1.10
2018-01-31T06:00:02.468Z,1.37
2018-01-31T06:02:32.312Z,1.20
2018-01-31T06:05:02.365Z,0.90
2018-01-31T06:07:30.759Z,1.10
2018-01-31T06:10:00.949Z,1.00
2018-01-31T06:12:30.357Z,0.90
2018-01-31T06:15:01.268Z,1.27
2018-01-31T06:17:30.584Z,1.37
2018-01-31T06:20:10.971Z,1.00
2018-01-31T06:22:38.693Z,0.90
2018-01-31T06:25:06.187Z,1.20
2018-01-31T06:27:37.593Z,1.40
2018-01-31T06:30:05.080Z,1.13
2018-01-31T06:32:32.581Z,1.00
2018-01-31T06:35:01.438Z,0.90
2018-01-31T06:37:32.053Z,1.20
2018-01-31T06:40:02.168Z,1.10
2018-01-31T06:42:32.056Z,1.20
2018-01-31T06:45:02.003Z,1.07
2018-01-31T06:47:32.047Z,1.03
2018-01-31T06:50:02.393Z,1.20
2018-01-31T06:52:32.237Z,1.33
2018-01-31T06:55:01.724Z,1.53
2018-01-31T06:57:30.784Z,1.43
2018-01-31T07:00:00.635Z,1.50
2018-01-31T07:02:38.936Z,1.67
2018-01-31T07:05:08.184Z,1.60
2018-01-31T07:07:35.688Z,1.67
2018-01-31T07:10:03.936Z,1.53
2018-01-31T07:12:31.753Z,1.40
2018-01-31T07:15:01.288Z,1.80
2018-01-31T07:17:30.532Z,1.73
2018-01-31T07:20:01.113Z,2.57
2018-01-31T07:22:29.697Z,1.53
2018-01-31T07:25:00.374Z,1.40
2018-01-31T07:27:30.579Z,1.30
2018-01-31T07:30:01.617Z,1.20
2018-01-31T07:32:36.204Z,1.00
2018-01-31T07:35:04.212Z,1.00
2018-01-31T07:37:32.880Z,0.90
2018-01-31T07:40:07.673Z,1.30
2018-01-31T07:42:36.571Z,1.00
2018-01-31T07:45:04.057Z,0.93
2018-01-31T07:47:33.968Z,1.30
2018-01-31T07:50:08.069Z,0.90
2018-01-31T07:52:42.001Z,1.00
2018-01-31T07:55:10.291Z,1.00
2018-01-31T07:57:37.796Z,1.00
2018-01-31T08:00:06.590Z,1.40
2018-01-31T08:02:46.109Z,1.00
2018-01-31T08:05:13.592Z,0.90
2018-01-31T08:07:41.861Z,1.20
2018-01-31T08:10:09.373Z,1.03
2018-01-31T08:12:37.168Z,0.80
2018-01-31T08:15:06.919Z,1.00
2018-01-31T08:17:36.553Z,1.10
2018-01-31T08:20:04.809Z,1.00
2018-01-31T08:22:37.903Z,1.20
2018-01-31T08:25:06.687Z,0.83
2018-01-31T08:27:34.557Z,0.97
2018-01-31T08:30:04.373Z,1.00
2018-01-31T08:32:33.362Z,0.90
2018-01-31T08:35:11.460Z,1.07
2018-01-31T08:37:38.953Z,1.00
2018-01-31T08:40:06.696Z,1.10
2018-01-31T08:42:37.368Z,0.93
2018-01-31T08:45:06.654Z,1.00
2018-01-31T08:47:36.588Z,1.00
2018-01-31T08:50:08.036Z,0.80
2018-01-31T08:52:38.095Z,1.20
2018-01-31T08:55:05.680Z,0.90
2018-01-31T08:57:41.877Z,0.80
2018-01-31T09:00:10.661Z,0.87
2018-01-31T09:02:40.261Z,1.27
2018-01-31T09:05:08.557Z,1.10
2018-01-31T09:07:37.344Z,1.37
2018-01-31T09:10:10.097Z,1.17
2018-01-31T09:12:37.580Z,0.90
2018-01-31T09:15:06.616Z,1.00
2018-01-31T09:17:36.281Z,1.10
2018-01-31T09:20:06.288Z,1.07
2018-01-31T09:22:36.760Z,1.00
2018-01-31T09:25:04.502Z,0.80
2018-01-31T09:27:35.646Z,1.10
2018-01-31T09:30:04.364Z,1.00
2018-01-31T09:32:40.550Z,1.10
2018-01-31T09:35:08.053Z,1.20
2018-01-31T09:37:35.703Z,1.00
2018-01-31T09:40:05.549Z,1.40
2018-01-31T09:42:34.383Z,1.00
2018-01-31T09:45:06.380Z,0.80
2018-01-31T09:47:35.212Z,1.03
2018-01-31T09:50:06.416Z,0.90
2018-01-31T09:52:34.938Z,1.00
2018-01-31T09:55:03.605Z,1.00
2018-01-31T09:57:35.621Z,1.00
2018-01-31T10:00:04.426Z,1.20
2018-01-31T10:02:36.460Z,0.80
2018-01-31T10:05:04.161Z,1.10
2018-01-31T10:07:33.661Z,1.10
2018-01-31T10:10:02.896Z,1.20
2018-01-31T10:12:36.888Z,1.10
2018-01-31T10:15:04.520Z,1.00
2018-01-31T10:17:36.741Z,1.40
2018-01-31T10:20:12.549Z,0.93
2018-01-31T10:22:40.100Z,0.97
2018-01-31T10:25:12.456Z,1.23
2018-01-31T10:27:39.943Z,0.90
2018-01-31T10:30:07.449Z,1.07
2018-01-31T10:32:38.948Z,0.97
2018-01-31T10:35:06.452Z,1.10
2018-01-31T10:37:41.827Z,1.17
2018-01-31T10:40:10.102Z,0.90
2018-01-31T10:42:37.594Z,1.00
2018-01-31T10:45:07.045Z,1.50
2018-01-31T10:47:37.044Z,0.93
2018-01-31T10:50:07.257Z,1.10
2018-01-31T10:52:37.032Z,1.10
2018-01-31T10:57:34.900Z,0.97
2018-01-31T11:00:07.057Z,1.10
2018-01-31T11:02:34.839Z,0.80
2018-01-31T11:05:04.553Z,0.80
2018-01-31T11:07:35.942Z,1.30
2018-01-31T11:10:06.363Z,0.80
2018-01-31T11:12:33.836Z,0.93
2018-01-31T11:15:06.257Z,0.90
2018-01-31T11:17:35.772Z,1.10
2018-01-31T11:20:04.886Z,0.90
2018-01-31T11:22:37.032Z,0.90
2018-01-31T11:25:05.240Z,1.00
2018-01-31T11:27:35.765Z,0.90
2018-01-31T11:30:07.235Z,0.90
2018-01-31T11:32:37.233Z,1.20
2018-01-31T11:35:06.332Z,0.97
2018-01-31T11:37:36.897Z,0.80
2018-01-31T11:40:11.907Z,1.00
2018-01-31T11:42:39.409Z,0.80
2018-01-31T11:45:07.662Z,0.90
2018-01-31T11:47:36.353Z,1.07
2018-01-31T11:50:08.558Z,1.20
2018-01-31T11:52:39.372Z,1.00
2018-01-31T11:55:06.853Z,0.80
2018-01-31T11:57:37.625Z,1.07
2018-01-31T12:00:06.232Z,1.03
2018-01-31T12:02:38.893Z,1.00
2018-01-31T12:05:06.396Z,1.00
2018-01-31T12:07:37.297Z,1.23
2018-01-31T12:10:06.450Z,1.10
2018-01-31T12:12:47.030Z,1.03
2018-01-31T12:15:34.051Z,1.20
2018-01-31T12:18:04.272Z,1.07
2018-01-31T12:20:44.848Z,0.93
2018-01-31T12:23:36.519Z,1.00
2018-01-31T12:26:15.828Z,1.00
2018-01-31T12:29:01.878Z,1.00
2018-01-31T12:31:45.429Z,0.97
2018-01-31T12:37:41.994Z,1.10
2018-01-31T12:40:08.994Z,1.00
2018-01-31T12:42:45.387Z,1.07
2018-01-31T12:45:14.244Z,1.40
2018-01-31T12:47:53.809Z,1.37
2018-01-31T12:50:38.810Z,1.20
2018-01-31T12:53:22.869Z,1.50
2018-01-31T12:56:15.348Z,1.50
2018-01-31T12:58:50.647Z,1.10
2018-01-31T13:01:45.779Z,1.40
2018-01-31T13:04:26.513Z,1.40
2018-01-31T13:07:15.212Z,1.47
2018-01-31T13:09:54.525Z,1.33
2018-01-31T13:12:48.855Z,1.50
2018-01-31T13:15:29.188Z,1.10
2018-01-31T13:20:52.732Z,1.90
2018-01-31T13:23:20.222Z,1.23
2018-01-31T13:26:02.695Z,1.20
2018-01-31T13:31:53.584Z,0.97
2018-01-31T13:37:56.744Z,1.00
2018-01-31T13:40:37.216Z,1.10
2018-01-31T13:43:24.044Z,1.03
2018-01-31T13:49:34.096Z,1.00
2018-01-31T13:52:20.583Z,1.67
2018-01-31T13:55:00.785Z,1.03
2018-01-31T13:57:57.017Z,1.03
2018-01-31T14:00:49.945Z,1.20
2018-01-31T14:03:35.701Z,1.17
2018-01-31T14:06:18.923Z,1.37
2018-01-31T14:09:00.283Z,1.60
2018-01-31T14:11:39.610Z,1.60
2018-01-31T14:14:24.201Z,1.90
2018-01-31T14:17:03.663Z,1.60
2018-01-31T14:19:56.002Z,1.57
2018-01-31T14:22:38.411Z,1.30
2018-01-31T14:25:18.994Z,1.10
2018-01-31T14:28:02.823Z,1.43
2018-01-31T14:30:57.340Z,1.40
2018-01-31T14:33:49.009Z,2.00
2018-01-31T14:36:25.181Z,1.20
2018-01-31T14:38:55.245Z,1.30
2018-01-31T14:41:25.084Z,1.90
2018-01-31T14:43:52.611Z,1.40
2018-01-31T14:46:26.675Z,1.20
2018-01-31T14:48:55.869Z,1.53
2018-01-31T14:51:25.820Z,1.77
2018-01-31T14:54:04.181Z,1.40
2018-01-31T14:56:31.321Z,1.40
2018-01-31T14:58:58.312Z,1.53
2018-01-31T15:01:29.863Z,1.33
2018-01-31T15:03:56.863Z,1.63
2018-01-31T15:06:23.862Z,1.40
2018-01-31T15:09:07.189Z,1.50
2018-01-31T15:11:36.144Z,1.47
2018-01-31T15:14:05.240Z,2.23
2018-01-31T15:16:33.233Z,2.17
2018-01-31T15:19:01.013Z,1.63
2018-01-31T15:21:31.100Z,1.60
2018-01-31T15:23:58.215Z,1.80
2018-01-31T15:26:25.979Z,1.40
2018-01-31T15:28:54.860Z,1.50
2018-01-31T15:31:24.705Z,1.50
2018-01-31T15:34:08.309Z,1.40
2018-01-31T15:36:35.309Z,1.10
2018-01-31T15:39:02.325Z,1.73
2018-01-31T15:41:29.336Z,1.50
2018-01-31T15:43:56.355Z,1.40
2018-01-31T15:46:23.432Z,1.40
2018-01-31T15:48:51.606Z,1.50
2018-01-31T15:51:29.145Z,1.57
2018-01-31T15:53:56.156Z,1.00
2018-01-31T15:56:26.078Z,1.50
2018-01-31T15:59:01.165Z,1.13
2018-01-31T16:01:28.161Z,1.43
2018-01-31T16:04:00.764Z,1.20
2018-01-31T16:06:28.667Z,1.23
2018-01-31T16:08:55.680Z,1.50
2018-01-31T16:11:23.172Z,1.67
2018-01-31T16:13:55.753Z,1.57
2018-01-31T16:16:31.570Z,1.27
2018-01-31T16:19:10.820Z,1.20
2018-01-31T16:21:45.252Z,1.10
2018-01-31T16:24:22.400Z,1.30
2018-01-31T16:26:49.883Z,2.10
2018-01-31T16:29:29.855Z,1.33
2018-01-31T16:32:09.576Z,1.67
2018-01-31T16:34:40.500Z,1.50
2018-01-31T16:37:14.419Z,2.20
2018-01-31T16:39:43.349Z,1.60
2018-01-31T16:42:18.224Z,1.60
2018-01-31T16:44:45.725Z,1.67
2018-01-31T16:47:13.448Z,2.20
2018-01-31T16:49:42.458Z,1.73
2018-01-31T16:52:20.307Z,2.17
2018-01-31T16:54:47.813Z,1.40
2018-01-31T16:57:16.284Z,1.70
2018-01-31T16:59:43.930Z,1.90
2018-01-31T17:02:15.499Z,1.40
2018-01-31T17:04:45.841Z,1.40
2018-01-31T17:07:13.816Z,1.90
2018-01-31T17:09:52.573Z,2.07
2018-01-31T17:12:20.065Z,3.00
2018-01-31T17:14:47.569Z,2.10
2018-01-31T17:17:16.080Z,2.30
2018-01-31T17:19:46.025Z,2.23
2018-01-31T17:22:15.678Z,1.93
2018-01-31T17:24:45.013Z,2.37
2018-01-31T17:27:27.465Z,1.50
2018-01-31T17:29:54.977Z,1.50
2018-01-31T17:32:22.468Z,1.37
2018-01-31T17:34:49.989Z,1.33
2018-01-31T17:37:18.240Z,1.27
2018-01-31T17:39:45.760Z,1.20
2018-01-31T17:42:14.007Z,1.30
2018-01-31T17:44:45.512Z,1.47
2018-01-31T17:47:15.980Z,1.67
2018-01-31T17:49:44.563Z,1.63
2018-01-31T17:52:12.905Z,1.50
2018-01-31T17:54:41.471Z,1.47
2018-01-31T17:57:15.649Z,2.50
2018-01-31T17:59:43.507Z,1.60
2018-01-31T18:02:11.415Z,1.73
2018-01-31T18:04:42.224Z,1.70
2018-01-31T18:07:11.319Z,1.47
2018-01-31T18:09:58.063Z,1.30
2018-01-31T18:12:25.552Z,1.40
2018-01-31T18:14:58.646Z,1.50
2018-01-31T18:17:34.052Z,1.40
2018-01-31T18:20:07.974Z,1.63
2018-01-31T18:22:35.851Z,1.77
2018-01-31T18:25:04.758Z,1.67
2018-01-31T18:27:33.241Z,1.50
2018-01-31T18:30:05.369Z,2.47
2018-01-31T18:32:34.181Z,3.87
2018-01-31T18:35:04.850Z,5.57
2018-01-31T18:37:33.765Z,5.37
2018-01-31T18:40:04.307Z,4.50
2018-01-31T18:42:34.052Z,3.83
2018-01-31T18:45:02.140Z,3.83
2018-01-31T18:47:32.864Z,3.40
2018-01-31T18:50:02.888Z,4.37
2018-01-31T18:52:33.196Z,4.20
2018-01-31T18:55:04.263Z,3.50
2018-01-31T18:57:35.232Z,3.93
2018-01-31T19:00:03.936Z,3.57
2018-01-31T19:02:34.309Z,4.70
2018-01-31T19:05:04.024Z,3.60
2018-01-31T19:07:34.186Z,3.10
2018-01-31T19:10:04.135Z,2.67
2018-01-31T19:12:33.912Z,3.97
2018-01-31T19:15:03.976Z,3.27
2018-01-31T19:17:33.236Z,2.63
2018-01-31T19:20:02.112Z,3.37
2018-01-31T19:22:32.936Z,2.80
2018-01-31T19:25:02.681Z,3.17
2018-01-31T19:27:33.218Z,3.20
2018-01-31T19:30:03.302Z,4.10
2018-01-31T19:32:32.219Z,4.03
2018-01-31T19:35:03.060Z,4.17
2018-01-31T19:37:32.974Z,4.50
2018-01-31T19:40:07.404Z,3.97
2018-01-31T19:42:35.193Z,3.57
2018-01-31T19:45:03.653Z,3.83
2018-01-31T19:47:33.464Z,4.37
2018-01-31T19:50:08.596Z,4.70
2018-01-31T19:52:38.287Z,4.47
2018-01-31T19:55:06.605Z,5.43
2018-01-31T19:57:34.882Z,6.23
2018-01-31T20:00:03.448Z,6.73
2018-01-31T20:02:32.964Z,5.90
2018-01-31T20:05:01.842Z,6.97
2018-01-31T20:07:31.758Z,7.97
2018-01-31T20:10:00.738Z,8.70
2018-01-31T20:12:29.509Z,8.30
2018-01-31T20:14:59.326Z,7.50
2018-01-31T20:17:37.549Z,9.33
2018-01-31T20:20:05.415Z,8.90
2018-01-31T20:22:33.469Z,10.07
2018-01-31T20:25:01.530Z,9.23
2018-01-31T20:27:31.668Z,9.70
2018-01-31T20:30:01.683Z,8.73
2018-01-31T20:32:29.928Z,8.47
2018-01-31T20:34:59.713Z,8.30
2018-01-31T20:37:29.733Z,8.27
2018-01-31T20:39:59.373Z,7.30
2018-01-31T20:42:29.476Z,9.03
2018-01-31T20:44:59.076Z,7.57
2018-01-31T20:47:39.500Z,7.53
2018-01-31T20:50:06.988Z,7.50
2018-01-31T20:52:34.494Z,7.10
2018-01-31T20:55:02.442Z,6.97
2018-01-31T20:57:30.896Z,8.00
2018-01-31T20:59:59.487Z,6.13
2018-01-31T21:02:29.233Z,5.50
2018-01-31T21:04:59.228Z,5.17
2018-01-31T21:07:36.541Z,5.33
2018-01-31T21:10:04.031Z,5.53
2018-01-31T21:12:33.828Z,5.00
2018-01-31T21:15:03.700Z,5.50
2018-01-31T21:17:35.102Z,4.80
2018-01-31T21:20:09.016Z,5.57
2018-01-31T21:22:37.287Z,4.83
2018-01-31T21:25:15.808Z,5.70
2018-01-31T21:28:00.623Z,5.17
2018-01-31T21:30:33.005Z,5.50
2018-01-31T21:33:03.688Z,5.73
2018-01-31T21:38:03.617Z,5.07
2018-01-31T21:40:31.381Z,5.50
2018-01-31T21:43:01.542Z,5.63
2018-01-31T21:45:29.550Z,5.83
2018-01-31T21:47:58.348Z,5.67
2018-01-31T21:50:27.921Z,6.30
2018-01-31T21:53:03.368Z,6.20
2018-01-31T21:55:37.264Z,6.37
2018-01-31T21:58:08.164Z,7.00
2018-01-31T22:00:37.380Z,6.60
2018-01-31T22:03:05.649Z,6.50
2018-01-31T22:05:33.290Z,6.77
2018-01-31T22:08:01.109Z,7.43
2018-01-31T22:10:29.199Z,6.30
2018-01-31T22:12:57.445Z,6.80
2018-01-31T22:15:26.349Z,7.63
2018-01-31T22:18:06.917Z,8.27
2018-01-31T22:20:34.505Z,8.70
2018-01-31T22:23:03.263Z,7.63
2018-01-31T22:25:32.776Z,7.20
2018-01-31T22:28:01.862Z,6.67
2018-01-31T22:30:31.441Z,7.97
2018-01-31T22:33:03.079Z,6.60
2018-01-31T22:35:32.507Z,7.50
2018-01-31T22:38:02.942Z,7.90
2018-01-31T22:40:31.174Z,7.63
2018-01-31T22:43:03.418Z,7.73
2018-01-31T22:45:33.117Z,8.53
2018-01-31T22:48:02.310Z,9.30
2018-01-31T22:50:31.582Z,8.50
2018-01-31T22:53:00.749Z,9.40
2018-01-31T22:55:33.474Z,9.20
2018-01-31T22:58:03.158Z,9.70
2018-01-31T23:00:33.381Z,8.17
2018-01-31T23:03:04.381Z,8.93
2018-01-31T23:05:33.938Z,10.93
2018-01-31T23:08:04.385Z,8.57
2018-01-31T23:10:34.940Z,8.60
2018-01-31T23:13:10.633Z,9.07
2018-01-31T23:15:38.161Z,7.80
2018-01-31T23:18:11.361Z,8.57
2018-01-31T23:20:38.885Z,8.17
2018-01-31T23:23:06.363Z,8.03
2018-01-31T23:25:34.137Z,9.10
2018-01-31T23:28:02.729Z,11.10
2018-01-31T23:30:32.796Z,10.70
2018-01-31T23:33:04.144Z,10.60
2018-01-31T23:35:32.848Z,13.03
2018-01-31T23:38:03.859Z,12.83
2018-01-31T23:40:35.746Z,12.63
2018-01-31T23:43:04.324Z,11.67
2018-01-31T23:45:33.579Z,13.47
2018-01-31T23:48:03.498Z,14.20
2018-01-31T23:50:32.648Z,14.07
2018-01-31T23:53:03.104Z,14.60
2018-01-31T23:55:36.708Z,14.20
2018-01-31T23:58:04.628Z,14.97
